Etusivu
METAR-TAF:

METAR-TAF

Lentoasemat :

Saratov, Venäjä

Leveyspiiri: 51-34-12N, Pituuspiiri: 046-04-12E, korkeus merenpinnasta: 166 m

Tämänhetkinen sää

Tämä raportti tehtiin 48 minuuttia sitten, kello 15.00 UTC
Tuuli 6 kn lännestä
Lämpötila 21°C
Kosteus 28%
Ilmanpaine 1018 hPa
Näkyvyys 10 km tai enemmän
ei pilviä alle 1500 m:ssä eikä cumulonimbus-pilviä

METAR: UWSS 211500Z 27003MPS CAVOK 21/02 Q1018 R12/010095 NOSIG RMK QFE752

Aika: 18:48 (15:48 UTC)

Sääennuste

Tämä raportti tehtiin 1 tunti ja 48 minuuttia sitten, kello 14.00 UTC
Ennuste voimassa 21. päivästä klo 15 UTC - 21. päivään klo 24 UTC
Tuuli 6 kn lounaasta puuskistuen 16 kn:hen
Näkyvyys 10 km tai enemmän
Hajanaisia pilviä 4000 ft:n korkeudessa
Ajoittain
21. päivästä klo 15 UTC - 21. päivään klo 24 UTC
Tuuli 6 kn etelästä puuskistuen 16 kn:hen
Hajanaisia pilviä 3000 ft:n korkeudessa

TAF: UWSS 211400Z 2115/2124 22003G08MPS 9999 SCT040 TEMPO 2115/2124 18003G08MPS SCT030

Säähavainnot ja -ennusteet yli 4000 lentoasemalta (METAR- ja TAF-raportit).

Käytössä olevat sääasemat on merkitty karttaan keltaisilla ja punaisilla pisteillä.

Aseta hiiri pisteen päälle nähdäksesi sääaseman nimen.

Klikkaa sitten nähdäksesi säähavainnot ja -ennusteet.

Kartan vaihtaminen: klikkaa mustalla rastilla varustettuja vihreitä pisteitä, niin voit zoomata sisään; viivalla varustettua vihreää pistettä, niin voit zoomata ulos tai vihreitä nuolia, niin pääset viereisille kartoille.


METAR-TAF: